createdAt,value
2023-03-07T00:02:12.424Z,4.90
2023-03-07T00:04:41.432Z,4.70
2023-03-07T00:07:08.325Z,4.80
2023-03-07T00:09:35.901Z,4.80
2023-03-07T00:12:04.509Z,4.70
2023-03-07T00:14:31.533Z,4.80
2023-03-07T00:16:58.489Z,4.80
2023-03-07T00:19:25.534Z,4.80
2023-03-07T00:25:20.696Z,4.70
2023-03-07T00:36:26.191Z,4.50
2023-03-07T00:42:04.353Z,4.30
2023-03-07T00:44:41.021Z,4.20
2023-03-07T00:47:08.328Z,4.20
2023-03-07T00:49:35.465Z,4.20
2023-03-07T00:52:03.753Z,4.20
2023-03-07T00:54:30.971Z,4.20
2023-03-07T00:56:58.114Z,4.10
2023-03-07T00:59:25.195Z,4.00
2023-03-07T01:01:52.958Z,4.00
2023-03-07T01:04:20.903Z,3.90
2023-03-07T01:06:48.372Z,3.80
2023-03-07T01:09:15.387Z,3.70
2023-03-07T01:11:42.468Z,3.60
2023-03-07T01:14:12.021Z,3.50
2023-03-07T01:16:40.385Z,3.50
2023-03-07T01:19:12.518Z,3.40
2023-03-07T01:21:42.837Z,3.30
2023-03-07T01:24:15.139Z,3.30
2023-03-07T01:26:43.363Z,3.20
2023-03-07T01:29:11.804Z,3.20
2023-03-07T01:31:38.802Z,3.10
2023-03-07T01:34:06.967Z,3.00
2023-03-07T01:36:36.628Z,3.10
2023-03-07T01:39:06.904Z,3.10
2023-03-07T01:41:37.868Z,3.00
2023-03-07T01:44:20.184Z,3.00
2023-03-07T01:47:00.788Z,2.90
2023-03-07T01:49:40.659Z,2.90
2023-03-07T01:52:33.473Z,2.90
2023-03-07T01:55:11.769Z,2.80
2023-03-07T01:57:43.130Z,2.90
2023-03-07T02:00:18.785Z,2.80
2023-03-07T02:02:51.094Z,2.90
2023-03-07T02:05:26.171Z,2.90
2023-03-07T02:07:56.286Z,2.90
2023-03-07T02:10:26.861Z,2.90
2023-03-07T02:12:54.677Z,3.00
2023-03-07T02:15:23.806Z,3.00
2023-03-07T02:17:52.359Z,3.00
2023-03-07T02:20:55.651Z,3.00
2023-03-07T02:23:52.112Z,3.10
2023-03-07T02:26:24.904Z,3.00
2023-03-07T02:28:55.445Z,3.00
2023-03-07T02:31:22.772Z,3.00
2023-03-07T02:33:50.300Z,3.00
2023-03-07T02:36:27.171Z,3.00
2023-03-07T02:39:12.949Z,2.90
2023-03-07T02:41:42.967Z,3.00
2023-03-07T02:44:18.666Z,3.00
2023-03-07T02:46:50.043Z,3.00
2023-03-07T02:49:18.169Z,3.00
2023-03-07T02:51:45.450Z,3.00
2023-03-07T02:54:15.603Z,3.10
2023-03-07T02:56:43.023Z,3.10
2023-03-07T02:59:10.376Z,3.20
2023-03-07T03:01:37.582Z,3.20
2023-03-07T03:04:04.544Z,3.10
2023-03-07T03:06:31.617Z,3.10
2023-03-07T03:08:58.934Z,3.10
2023-03-07T03:11:27.137Z,3.10
2023-03-07T03:13:54.520Z,3.10
2023-03-07T03:16:22.235Z,3.00
2023-03-07T03:18:49.234Z,3.00
2023-03-07T03:21:16.400Z,3.20
2023-03-07T03:23:44.640Z,3.10
2023-03-07T03:26:13.221Z,3.30
2023-03-07T03:28:40.323Z,3.40
2023-03-07T03:31:10.419Z,3.30
2023-03-07T03:33:39.909Z,3.10
2023-03-07T03:36:10.072Z,3.10
2023-03-07T03:38:38.102Z,3.20
2023-03-07T03:41:13.894Z,3.20
2023-03-07T03:43:42.077Z,3.20
2023-03-07T03:46:10.537Z,3.30
2023-03-07T03:48:39.538Z,3.10
2023-03-07T03:51:13.139Z,3.20
2023-03-07T03:53:40.984Z,3.10
2023-03-07T03:56:11.823Z,3.10
2023-03-07T03:58:40.456Z,3.00
2023-03-07T04:01:12.754Z,3.00
2023-03-07T04:03:42.945Z,3.00
2023-03-07T04:06:21.259Z,3.00
2023-03-07T04:08:48.775Z,3.00
2023-03-07T04:11:17.331Z,3.00
2023-03-07T04:13:45.608Z,3.00
2023-03-07T04:16:13.273Z,3.00
2023-03-07T04:18:40.609Z,3.00
2023-03-07T04:21:11.308Z,3.00
2023-03-07T04:23:39.445Z,3.00
2023-03-07T04:26:09.183Z,3.00
2023-03-07T04:28:43.166Z,3.00
2023-03-07T04:31:16.223Z,3.00
2023-03-07T04:33:47.710Z,3.10
2023-03-07T04:36:19.272Z,3.10
2023-03-07T04:38:47.841Z,3.00
2023-03-07T04:41:20.244Z,3.00
2023-03-07T04:43:49.849Z,3.00
2023-03-07T04:46:18.268Z,3.10
2023-03-07T04:48:46.391Z,3.10
2023-03-07T04:51:13.971Z,3.00
2023-03-07T04:53:41.326Z,2.90
2023-03-07T04:56:08.953Z,3.00
2023-03-07T04:58:37.173Z,2.90
2023-03-07T05:01:05.227Z,2.90
2023-03-07T05:03:32.999Z,2.80
2023-03-07T05:06:07.145Z,2.90
2023-03-07T05:08:36.967Z,2.90
2023-03-07T05:11:03.938Z,3.00
2023-03-07T05:13:31.770Z,3.00
2023-03-07T05:16:00.264Z,2.90
2023-03-07T05:18:30.812Z,3.00
2023-03-07T05:20:59.196Z,2.90
2023-03-07T05:23:26.934Z,2.80
2023-03-07T05:25:55.016Z,2.90
2023-03-07T05:28:22.191Z,2.90
2023-03-07T05:30:49.706Z,2.80
2023-03-07T05:33:17.851Z,2.80
2023-03-07T05:35:48.445Z,2.80
2023-03-07T05:38:16.658Z,3.00
2023-03-07T05:40:43.668Z,3.00
2023-03-07T05:43:12.135Z,3.00
2023-03-07T05:45:39.135Z,2.80
2023-03-07T05:48:09.161Z,3.00
2023-03-07T05:50:38.341Z,3.10
2023-03-07T05:53:07.175Z,3.10
2023-03-07T05:55:34.896Z,2.90
2023-03-07T05:58:02.253Z,2.80
2023-03-07T06:00:30.356Z,2.80
2023-03-07T06:03:04.759Z,2.90
2023-03-07T06:05:32.908Z,3.00
2023-03-07T06:08:00.205Z,3.00
2023-03-07T06:10:27.854Z,3.10
2023-03-07T06:12:56.027Z,3.00
2023-03-07T06:15:24.938Z,3.10
2023-03-07T06:18:00.762Z,3.20
2023-03-07T06:20:30.231Z,3.30
2023-03-07T06:23:04.079Z,3.30
2023-03-07T06:25:31.237Z,3.40
2023-03-07T06:28:01.014Z,3.40
2023-03-07T06:30:30.226Z,3.40
2023-03-07T06:32:57.438Z,3.50
2023-03-07T06:35:24.734Z,3.40
2023-03-07T06:37:52.416Z,3.40
2023-03-07T06:40:22.201Z,3.40
2023-03-07T06:42:49.253Z,3.50
2023-03-07T06:45:16.580Z,3.70
2023-03-07T06:47:45.017Z,3.60
2023-03-07T06:50:12.043Z,3.70
2023-03-07T06:52:39.745Z,3.70
2023-03-07T06:55:07.498Z,3.70
2023-03-07T06:57:35.566Z,3.50
2023-03-07T07:00:04.987Z,3.70
2023-03-07T07:02:36.812Z,3.80
2023-03-07T07:05:05.316Z,3.80
2023-03-07T07:07:32.250Z,3.90
2023-03-07T07:10:01.257Z,4.00
2023-03-07T07:12:28.828Z,4.00
2023-03-07T07:14:56.893Z,4.00
2023-03-07T07:17:24.340Z,3.90
2023-03-07T07:19:51.297Z,4.00
2023-03-07T07:22:18.229Z,4.10
2023-03-07T07:24:46.003Z,4.20
2023-03-07T07:27:13.126Z,4.30
2023-03-07T07:29:41.753Z,4.30
2023-03-07T07:32:09.997Z,4.50
2023-03-07T07:34:37.263Z,4.60
2023-03-07T07:37:04.617Z,4.60
2023-03-07T07:39:31.626Z,4.60
2023-03-07T07:41:59.173Z,4.80
2023-03-07T07:44:31.169Z,4.70
2023-03-07T07:47:01.470Z,4.80
2023-03-07T07:49:29.913Z,5.00
2023-03-07T07:52:05.657Z,5.10
2023-03-07T07:54:33.006Z,5.10
2023-03-07T07:57:01.409Z,5.30
2023-03-07T07:59:28.437Z,5.40
2023-03-07T08:01:55.897Z,5.50
2023-03-07T08:04:24.485Z,5.60
2023-03-07T08:06:52.376Z,5.70
2023-03-07T08:09:20.047Z,5.90
2023-03-07T08:11:48.594Z,6.00
2023-03-07T08:14:17.313Z,6.20
2023-03-07T08:16:44.329Z,6.30
2023-03-07T08:19:11.267Z,6.40
2023-03-07T08:21:38.247Z,6.60
2023-03-07T08:24:05.406Z,7.00
2023-03-07T08:26:32.295Z,7.50
2023-03-07T08:28:59.485Z,7.80
2023-03-07T08:31:26.657Z,7.90
2023-03-07T08:33:53.880Z,8.00
2023-03-07T08:36:20.922Z,8.10
2023-03-07T08:56:07.795Z,8.70
2023-03-07T08:58:38.714Z,8.60
2023-03-07T09:01:07.012Z,8.60
2023-03-07T09:03:34.694Z,8.80
2023-03-07T09:06:05.383Z,8.90
2023-03-07T09:08:33.112Z,9.00
2023-03-07T09:11:03.745Z,9.20
2023-03-07T09:13:43.036Z,9.30
2023-03-07T09:16:19.928Z,9.50
2023-03-07T09:18:47.743Z,9.70
2023-03-07T09:21:16.518Z,9.70
2023-03-07T09:23:45.371Z,9.70
2023-03-07T09:26:13.195Z,9.30
2023-03-07T09:28:42.093Z,9.30
2023-03-07T09:31:13.820Z,9.50
2023-03-07T09:33:44.664Z,9.60
2023-03-07T09:36:16.429Z,9.80
2023-03-07T09:38:45.020Z,9.70
2023-03-07T09:41:23.096Z,9.50
2023-03-07T09:44:11.004Z,9.40
2023-03-07T09:47:31.740Z,9.60
2023-03-07T09:50:03.340Z,9.50
2023-03-07T09:52:40.503Z,9.60
2023-03-07T09:55:21.892Z,9.90
2023-03-07T09:58:00.188Z,10.60
2023-03-07T10:00:41.421Z,10.90
2023-03-07T10:03:26.992Z,10.90
2023-03-07T10:06:14.313Z,10.80
2023-03-07T10:08:41.334Z,10.60
2023-03-07T10:11:14.359Z,10.90
2023-03-07T10:13:59.508Z,11.30
2023-03-07T10:16:36.907Z,11.00
2023-03-07T10:19:16.380Z,11.00
2023-03-07T10:22:05.574Z,11.10
2023-03-07T10:25:01.908Z,11.10
2023-03-07T10:27:31.528Z,11.20
2023-03-07T10:30:01.504Z,10.80
2023-03-07T10:32:58.145Z,11.00
2023-03-07T10:35:43.762Z,11.40
2023-03-07T10:38:33.325Z,11.60
2023-03-07T10:41:11.990Z,11.80
2023-03-07T10:43:40.676Z,11.80
2023-03-07T10:46:26.247Z,11.70
2023-03-07T10:48:56.223Z,11.80
2023-03-07T10:52:03.796Z,11.70
2023-03-07T10:54:37.009Z,11.60
2023-03-07T10:57:13.231Z,11.10
2023-03-07T10:59:49.658Z,11.10
2023-03-07T11:02:36.162Z,11.20
2023-03-07T11:05:19.626Z,10.80
2023-03-07T11:07:49.047Z,10.90
2023-03-07T11:10:42.519Z,10.80
2023-03-07T11:13:25.782Z,11.00
2023-03-07T11:16:16.946Z,11.60
2023-03-07T11:18:47.239Z,12.50
2023-03-07T11:21:30.655Z,13.10
2023-03-07T11:24:22.151Z,12.80
2023-03-07T11:26:55.727Z,12.80
2023-03-07T11:29:22.809Z,12.00
2023-03-07T11:32:14.024Z,11.60
2023-03-07T11:35:12.280Z,11.80
2023-03-07T11:37:50.149Z,11.80
2023-03-07T11:40:39.029Z,11.90
2023-03-07T11:43:16.616Z,11.60
2023-03-07T11:46:00.155Z,11.50
2023-03-07T11:48:52.426Z,11.30
2023-03-07T11:52:24.505Z,11.20
2023-03-07T11:55:29.817Z,11.50
2023-03-07T11:58:26.996Z,11.60
2023-03-07T12:01:34.651Z,11.70
2023-03-07T12:04:13.534Z,11.60
2023-03-07T12:06:43.264Z,12.10
2023-03-07T12:09:41.146Z,12.10
2023-03-07T12:12:35.568Z,11.90
2023-03-07T12:15:30.278Z,11.90
2023-03-07T12:18:03.639Z,12.80
2023-03-07T12:21:07.753Z,13.10
2023-03-07T12:23:59.563Z,13.50
2023-03-07T12:26:42.472Z,13.40
2023-03-07T12:29:37.277Z,14.00
2023-03-07T12:32:24.979Z,13.80
2023-03-07T12:35:23.740Z,14.30
2023-03-07T12:38:14.072Z,13.60
2023-03-07T12:40:49.298Z,13.30
2023-03-07T12:43:21.984Z,13.20
2023-03-07T12:46:25.046Z,12.80
2023-03-07T12:49:16.319Z,12.60
2023-03-07T12:51:50.914Z,13.40
2023-03-07T12:54:35.473Z,14.00
2023-03-07T12:57:05.344Z,14.00
2023-03-07T12:59:36.690Z,14.00
2023-03-07T13:02:33.301Z,13.80
2023-03-07T13:05:02.379Z,13.70
2023-03-07T13:07:35.505Z,14.10
2023-03-07T13:10:06.986Z,13.80
2023-03-07T13:12:40.484Z,12.60
2023-03-07T13:15:46.291Z,12.50
2023-03-07T13:18:34.155Z,12.40
2023-03-07T13:21:33.267Z,12.20
2023-03-07T13:24:38.689Z,12.30
2023-03-07T13:28:13.984Z,12.60
2023-03-07T13:31:50.542Z,12.60
2023-03-07T13:34:46.652Z,12.50
2023-03-07T13:37:48.407Z,13.10
2023-03-07T13:40:25.595Z,12.70
2023-03-07T13:42:53.174Z,12.30
2023-03-07T13:45:40.786Z,12.20
2023-03-07T13:48:16.633Z,11.90
2023-03-07T13:50:49.721Z,11.90
2023-03-07T13:53:21.367Z,11.90
2023-03-07T13:56:09.217Z,11.50
2023-03-07T13:58:59.269Z,11.00
2023-03-07T14:01:44.855Z,11.10
2023-03-07T14:04:38.760Z,10.70
2023-03-07T14:07:26.569Z,10.60
2023-03-07T14:10:22.499Z,10.80
2023-03-07T14:13:05.642Z,10.80
2023-03-07T14:16:10.945Z,10.40
2023-03-07T14:18:53.608Z,10.30
2023-03-07T14:21:45.962Z,10.30
2023-03-07T14:24:39.771Z,10.60
2023-03-07T14:27:15.724Z,10.90
2023-03-07T14:29:57.906Z,10.60
2023-03-07T14:32:30.504Z,10.50
2023-03-07T14:34:58.390Z,9.90
2023-03-07T14:37:28.594Z,9.50
2023-03-07T14:40:16.653Z,9.30
2023-03-07T14:43:08.140Z,9.30
2023-03-07T14:46:04.739Z,9.30
2023-03-07T14:48:42.852Z,9.30
2023-03-07T14:51:16.574Z,9.40
2023-03-07T14:53:44.264Z,9.90
2023-03-07T14:56:12.558Z,9.70
2023-03-07T14:58:53.699Z,9.60
2023-03-07T15:01:29.248Z,9.60
2023-03-07T15:03:56.323Z,9.80
2023-03-07T15:06:26.116Z,9.80
2023-03-07T15:08:58.008Z,9.60
2023-03-07T15:11:40.404Z,9.40
2023-03-07T15:14:13.510Z,9.40
2023-03-07T15:16:57.623Z,9.10
2023-03-07T15:19:39.272Z,9.10
2023-03-07T15:22:20.988Z,8.90
2023-03-07T15:24:52.519Z,8.80
2023-03-07T15:27:28.998Z,8.50
2023-03-07T15:30:00.176Z,8.30
2023-03-07T15:32:30.375Z,8.20
2023-03-07T15:35:09.508Z,8.40
2023-03-07T15:37:52.639Z,8.10
2023-03-07T15:40:36.541Z,7.90
2023-03-07T15:43:04.733Z,7.60
2023-03-07T15:45:33.709Z,7.40
2023-03-07T15:48:09.296Z,7.30
2023-03-07T15:50:38.451Z,7.10
2023-03-07T15:53:28.662Z,7.00
2023-03-07T15:56:01.427Z,7.10
2023-03-07T15:58:30.918Z,7.10
2023-03-07T16:01:23.384Z,7.00
2023-03-07T16:04:46.063Z,6.80
2023-03-07T16:07:18.280Z,6.70
2023-03-07T16:09:45.514Z,6.60
2023-03-07T16:12:21.633Z,6.50
2023-03-07T16:14:52.130Z,6.50
2023-03-07T16:17:40.112Z,6.50
2023-03-07T16:20:18.988Z,6.60
2023-03-07T16:22:48.433Z,6.40
2023-03-07T16:25:16.701Z,6.30
2023-03-07T16:27:51.036Z,6.30
2023-03-07T16:30:22.716Z,6.20
2023-03-07T16:32:52.095Z,6.20
2023-03-07T16:35:24.027Z,6.20
2023-03-07T16:37:54.186Z,6.10
2023-03-07T16:40:23.161Z,6.00
2023-03-07T16:42:51.343Z,6.10
2023-03-07T16:45:31.121Z,6.00
2023-03-07T16:48:00.805Z,5.90
2023-03-07T16:50:33.523Z,6.00
2023-03-07T16:53:06.613Z,6.00
2023-03-07T16:55:35.415Z,6.00
2023-03-07T16:58:06.163Z,5.80
2023-03-07T17:00:34.065Z,5.80
2023-03-07T17:03:05.114Z,5.70
2023-03-07T17:05:32.158Z,5.70
2023-03-07T17:08:02.614Z,5.80
2023-03-07T17:10:31.054Z,5.80
2023-03-07T17:13:02.375Z,5.80
2023-03-07T17:15:33.517Z,5.80
2023-03-07T17:18:03.024Z,5.70
2023-03-07T17:20:31.214Z,5.80
2023-03-07T17:23:02.076Z,5.70
2023-03-07T17:25:39.325Z,5.60
2023-03-07T17:28:15.045Z,5.60
2023-03-07T17:30:48.406Z,5.60
2023-03-07T17:33:20.157Z,5.70
2023-03-07T17:35:57.196Z,5.60
2023-03-07T17:38:24.608Z,5.50
2023-03-07T17:40:59.227Z,5.50
2023-03-07T17:43:28.961Z,5.40
2023-03-07T17:45:56.594Z,5.30
2023-03-07T17:48:25.572Z,5.20
2023-03-07T17:50:58.168Z,5.20
2023-03-07T17:53:30.781Z,5.20
2023-03-07T17:56:10.511Z,5.30
2023-03-07T17:58:38.894Z,5.10
2023-03-07T18:01:11.902Z,5.00
2023-03-07T18:04:00.605Z,5.10
2023-03-07T18:06:29.011Z,5.00
2023-03-07T18:08:58.412Z,5.20
2023-03-07T18:11:28.812Z,5.20
2023-03-07T18:14:00.262Z,5.10
2023-03-07T18:16:28.481Z,5.10
2023-03-07T18:19:00.707Z,5.10
2023-03-07T18:21:31.796Z,5.00
2023-03-07T18:23:59.691Z,5.00
2023-03-07T18:26:29.666Z,5.10
2023-03-07T18:28:59.850Z,5.00
2023-03-07T18:31:31.025Z,5.00
2023-03-07T18:34:01.598Z,4.90
2023-03-07T18:36:32.296Z,4.90
2023-03-07T18:39:00.357Z,5.00
2023-03-07T18:41:31.667Z,4.90
2023-03-07T18:44:00.409Z,4.80
2023-03-07T18:46:32.646Z,4.80
2023-03-07T18:49:01.583Z,4.80
2023-03-07T18:51:32.317Z,4.80
2023-03-07T18:54:02.005Z,4.80
2023-03-07T18:56:31.210Z,4.70
2023-03-07T18:59:01.576Z,4.60
2023-03-07T19:01:36.232Z,4.60
2023-03-07T19:04:07.021Z,4.50
2023-03-07T19:06:41.248Z,4.40
2023-03-07T19:09:18.188Z,4.50
2023-03-07T19:11:48.058Z,4.50
2023-03-07T19:14:19.268Z,4.60
2023-03-07T19:16:48.595Z,4.60
2023-03-07T19:19:19.034Z,4.50
2023-03-07T19:21:49.331Z,4.60
2023-03-07T19:24:18.652Z,4.50
2023-03-07T19:26:47.024Z,4.40
2023-03-07T19:29:15.097Z,4.50
2023-03-07T19:31:44.942Z,4.50
2023-03-07T19:34:14.794Z,4.40
2023-03-07T19:36:44.046Z,4.30
2023-03-07T19:39:24.265Z,4.30
2023-03-07T19:43:08.333Z,4.30
2023-03-07T20:05:21.894Z,4.20
2023-03-07T20:07:49.776Z,4.40
2023-03-07T20:18:35.919Z,4.40
2023-03-07T20:21:38.728Z,4.30
2023-03-07T21:22:42.361Z,4.20
2023-03-07T21:25:10.998Z,4.10
2023-03-07T22:22:04.961Z,3.20
2023-03-07T22:24:32.486Z,3.10
2023-03-07T22:29:55.542Z,3.00
2023-03-07T22:32:24.412Z,3.00
2023-03-07T22:34:56.082Z,3.00
2023-03-07T22:37:23.267Z,2.90
2023-03-07T22:39:50.247Z,2.90
2023-03-07T22:42:17.706Z,2.80
2023-03-07T22:44:48.340Z,2.80
2023-03-07T22:47:17.067Z,2.90
2023-03-07T22:49:45.158Z,2.80
2023-03-07T22:52:13.590Z,2.80
2023-03-07T22:54:41.149Z,2.70
2023-03-07T22:57:08.108Z,2.70
2023-03-07T22:59:35.171Z,2.70
2023-03-07T23:02:04.813Z,2.60
2023-03-07T23:04:31.807Z,2.40
2023-03-07T23:06:58.833Z,2.50
2023-03-07T23:09:25.738Z,2.50
2023-03-07T23:11:52.945Z,2.60
2023-03-07T23:14:21.318Z,2.60
2023-03-07T23:16:48.519Z,2.70
2023-03-07T23:19:15.590Z,2.80
2023-03-07T23:21:42.968Z,2.90
2023-03-07T23:24:11.695Z,3.00
2023-03-07T23:26:39.490Z,2.90
2023-03-07T23:29:07.680Z,3.10
2023-03-07T23:31:36.925Z,3.00
2023-03-07T23:34:17.079Z,2.90
2023-03-07T23:36:44.917Z,2.90
2023-03-07T23:39:13.197Z,2.90
2023-03-07T23:41:41.250Z,2.90
2023-03-07T23:44:08.339Z,2.90
2023-03-07T23:46:35.367Z,3.00
2023-03-07T23:49:05.665Z,2.90
2023-03-07T23:51:32.663Z,3.00
2023-03-07T23:53:59.687Z,3.10
2023-03-07T23:56:26.707Z,3.30
2023-03-07T23:58:54.618Z,3.40
